Terminal Aerodrome Forecast
Issued by NWS

Home | Current Version | Previous Version | Text Only | Print | Product List | Glossary On
Versions: 1 2 3 4 5 6 7 8 9 10 11 12 13 14 15 16 17 18 19 20
000
FTAK31 PAJN 300300 AAB
TAFAPG
TAF AMD
PAPG 300312Z 3003/3024 VRB05KT P6SM -RA BKN035 OVC050
     FM301000 00000KT 4SM -SHRA BR FEW012 OVC025
     FM301400 VRB02KT 2SM -SHRA BR BKN012 OVC020
     FM301800 07004KT P6SM VCSH SCT025 OVC035
     FM302200 14006KT P6SM -SHRA SCT025 OVC035
      AMD LTD TO CLD VIS AND WIND 3006/3015=

USA.gov is the U.S. government's official web portal to all federal, state and local government web resources and services.